Time;durP1;ratioP1;P1;durP2;ratioP2;P2;SDS_P1;SDS_P2;PMS_P1;PMS_P2;Temp;Humidity;BMP_temperature;BMP_pressure;BME280_temperature;BME280_humidity;BME280_pressure;Samples;Min_cycle;Max_cycle;Signal;HPM_P1;HPM_P2
2021/07/06 00:00:26;;;;;;;1.38;0.80;;;19.20;99.90;;;;;;5013171;28;20072;-67
2021/07/06 00:02:52;;;;;;;2.70;1.20;;;19.20;99.90;;;;;;5013449;28;20050;-68
2021/07/06 00:05:19;;;;;;;3.03;1.10;;;19.20;99.90;;;;;;5013344;28;20557;-67
2021/07/06 00:07:47;;;;;;;2.58;1.10;;;19.20;99.90;;;;;;4995854;28;20060;-68
2021/07/06 00:10:15;;;;;;;3.63;1.10;;;19.10;99.90;;;;;;4995837;28;20038;-68
2021/07/06 00:12:41;;;;;;;2.10;1.30;;;19.10;99.90;;;;;;5013444;28;20092;-68
2021/07/06 00:15:10;;;;;;;2.10;1.00;;;19.00;99.90;;;;;;5013050;28;20439;-68
2021/07/06 00:17:37;;;;;;;4.82;1.23;;;19.00;99.90;;;;;;5012925;28;20044;-68
2021/07/06 00:20:08;;;;;;;6.22;1.23;;;19.00;99.90;;;;;;4995861;28;20399;-68
2021/07/06 00:22:35;;;;;;;2.53;1.20;;;19.00;99.90;;;;;;4995593;28;20034;-68
2021/07/06 00:25:01;;;;;;;1.83;0.98;;;19.00;99.90;;;;;;5013257;28;20040;-68
2021/07/06 00:27:27;;;;;;;1.88;0.95;;;18.90;99.90;;;;;;4995486;28;20030;-68
2021/07/06 00:29:53;;;;;;;1.77;1.10;;;18.80;99.90;;;;;;5012775;28;20037;-69
2021/07/06 00:32:19;;;;;;;1.45;0.98;;;18.70;99.90;;;;;;5012800;28;20026;-69
2021/07/06 00:34:44;;;;;;;3.20;1.17;;;18.60;99.90;;;;;;5012765;28;20391;-68
2021/07/06 00:37:10;;;;;;;2.65;1.33;;;18.60;99.90;;;;;;4995339;28;20041;-69
2021/07/06 00:39:36;;;;;;;2.78;1.10;;;18.50;99.90;;;;;;5012690;28;20030;-69
2021/07/06 00:42:09;;;;;;;4.07;1.20;;;18.50;99.90;;;;;;5012713;28;20038;-67
2021/07/06 00:44:35;;;;;;;4.50;1.40;;;18.50;99.90;;;;;;4995376;28;20072;-69
2021/07/06 00:47:05;;;;;;;4.90;1.20;;;18.40;99.90;;;;;;5012858;28;20038;-68
2021/07/06 00:49:32;;;;;;;4.13;1.45;;;18.40;99.90;;;;;;4995039;28;20038;-68
2021/07/06 00:51:58;;;;;;;3.10;1.42;;;18.40;99.90;;;;;;4995036;28;20506;-68
2021/07/06 00:54:24;;;;;;;3.00;1.25;;;18.40;99.90;;;;;;5012391;28;20073;-68
2021/07/06 00:56:50;;;;;;;1.77;1.27;;;18.40;99.90;;;;;;5012504;28;20475;-68
2021/07/06 00:59:15;;;;;;;3.28;1.30;;;18.30;99.90;;;;;;4994955;28;20529;-68
2021/07/06 01:01:41;;;;;;;1.63;1.10;;;18.30;99.90;;;;;;5012425;28;20453;-68
2021/07/06 01:04:07;;;;;;;4.00;1.20;;;18.30;99.90;;;;;;5011575;28;20056;-68
2021/07/06 01:06:33;;;;;;;3.88;1.50;;;18.20;99.90;;;;;;5012242;28;20053;-68
2021/07/06 01:09:04;;;;;;;4.57;1.23;;;18.20;99.90;;;;;;4994984;28;20028;-69
2021/07/06 01:11:30;;;;;;;5.00;1.52;;;18.20;99.90;;;;;;4995025;28;20096;-68
2021/07/06 01:13:55;;;;;;;4.57;1.42;;;18.20;99.90;;;;;;5012373;28;20037;-67
2021/07/06 01:16:21;;;;;;;2.53;1.23;;;18.20;99.90;;;;;;5012553;28;20036;-68
2021/07/06 01:18:47;;;;;;;4.40;1.30;;;18.20;99.90;;;;;;5012031;28;20066;-68
2021/07/06 01:21:13;;;;;;;4.93;1.40;;;18.20;99.90;;;;;;4995020;28;20040;-68
2021/07/06 01:23:39;;;;;;;3.58;1.33;;;18.20;99.90;;;;;;4994334;28;20034;-68
2021/07/06 01:26:07;;;;;;;3.03;1.40;;;18.20;99.90;;;;;;5012477;28;20034;-67
2021/07/06 01:28:35;;;;;;;3.67;1.23;;;18.20;99.90;;;;;;4994759;28;20033;-68
2021/07/06 01:31:01;;;;;;;2.97;1.35;;;18.20;99.90;;;;;;5012048;28;20058;-68
2021/07/06 01:33:30;;;;;;;2.83;1.42;;;18.10;99.90;;;;;;5012005;28;20065;-69
2021/07/06 01:36:04;;;;;;;2.70;1.30;;;18.10;99.90;;;;;;5011980;28;20026;-69
2021/07/06 01:38:31;;;;;;;3.95;1.25;;;18.00;99.90;;;;;;4995723;28;20037;-69
2021/07/06 01:40:58;;;;;;;15.90;2.17;;;18.00;99.90;;;;;;5011920;28;20030;-68
2021/07/06 01:43:24;;;;;;;2.38;1.33;;;17.90;99.90;;;;;;4994592;28;20371;-68
2021/07/06 01:45:50;;;;;;;4.10;1.40;;;17.90;99.90;;;;;;4994357;28;20037;-68
2021/07/06 01:48:16;;;;;;;3.38;1.30;;;17.80;99.90;;;;;;5011924;28;20080;-69
2021/07/06 01:50:43;;;;;;;1.83;1.30;;;17.80;99.90;;;;;;5011861;28;20069;-68
2021/07/06 01:53:15;;;;;;;2.20;1.30;;;17.90;99.90;;;;;;5012123;28;20080;-69
2021/07/06 01:55:45;;;;;;;2.15;1.08;;;17.90;99.90;;;;;;5011912;28;20034;-69
2021/07/06 01:58:15;;;;;;;3.30;1.08;;;17.90;99.90;;;;;;4994442;28;20061;-69
2021/07/06 02:00:46;;;;;;;3.05;1.35;;;17.90;99.90;;;;;;4994454;28;20053;-68
2021/07/06 02:03:12;;;;;;;4.20;1.48;;;17.90;99.90;;;;;;5012193;28;20378;-67
2021/07/06 02:05:45;;;;;;;2.28;1.05;;;17.90;99.90;;;;;;4990828;28;20053;-69
2021/07/06 02:08:18;;;;;;;2.13;1.13;;;17.90;99.90;;;;;;4991366;28;20034;-69
2021/07/06 02:10:48;;;;;;;5.13;1.50;;;17.90;99.90;;;;;;4991104;28;20105;-67
2021/07/06 02:13:21;;;;;;;1.70;1.17;;;18.00;99.90;;;;;;4992299;28;20128;-69
2021/07/06 02:15:49;;;;;;;3.88;1.60;;;18.00;99.90;;;;;;4995465;28;20089;-69
2021/07/06 02:18:20;;;;;;;3.17;1.23;;;18.10;99.90;;;;;;4995810;28;20038;-68
2021/07/06 02:20:52;;;;;;;4.90;1.30;;;18.10;99.90;;;;;;4994656;28;20034;-68
2021/07/06 02:23:18;;;;;;;2.45;1.30;;;18.10;99.90;;;;;;4995610;28;20066;-69
2021/07/06 02:25:44;;;;;;;3.03;1.27;;;18.00;99.90;;;;;;4994326;28;20038;-69
2021/07/06 02:28:10;;;;;;;6.30;1.55;;;17.90;99.90;;;;;;4994295;28;20030;-68
2021/07/06 02:30:36;;;;;;;3.42;1.40;;;17.90;99.90;;;;;;4995786;28;20594;-68
2021/07/06 02:33:01;;;;;;;3.80;1.77;;;17.90;99.90;;;;;;4995414;28;20038;-68
2021/07/06 02:35:27;;;;;;;4.18;1.45;;;17.90;99.90;;;;;;4995470;28;20045;-69
2021/07/06 02:37:56;;;;;;;2.95;2.03;;;17.90;99.90;;;;;;4995510;28;20061;-68
2021/07/06 02:40:23;;;;;;;4.22;1.35;;;18.00;99.90;;;;;;4994245;28;20049;-68
2021/07/06 02:42:49;;;;;;;4.53;1.50;;;18.00;99.90;;;;;;4993875;28;20053;-67
2021/07/06 02:45:16;;;;;;;3.10;1.30;;;18.00;99.90;;;;;;4994194;28;20037;-68
2021/07/06 02:47:42;;;;;;;2.53;1.30;;;18.00;99.90;;;;;;4995017;28;20026;-68
2021/07/06 02:50:10;;;;;;;5.30;1.80;;;18.00;99.90;;;;;;4995429;28;20049;-68
2021/07/06 02:52:36;;;;;;;2.67;1.55;;;17.90;99.90;;;;;;4995344;28;20022;-68
2021/07/06 02:55:06;;;;;;;2.65;1.55;;;17.90;99.90;;;;;;4993955;28;20492;-68
2021/07/06 02:57:35;;;;;;;2.83;1.30;;;17.90;99.90;;;;;;4995327;28;20030;-68
2021/07/06 03:00:29;;;;;;;4.00;1.35;;;17.90;99.90;;;;;;4994714;28;20026;-69
2021/07/06 03:03:02;;;;;;;3.00;1.20;;;17.90;99.90;;;;;;4993660;28;20035;-69
2021/07/06 03:05:30;;;;;;;4.85;1.40;;;17.80;99.90;;;;;;4997791;28;20042;-68
2021/07/06 03:07:57;;;;;;;2.90;1.30;;;17.90;99.90;;;;;;4996911;28;20049;-67
2021/07/06 03:10:38;;;;;;;10.43;2.13;;;17.80;99.90;;;;;;4997186;28;20041;-67
2021/07/06 03:13:04;;;;;;;;;;;17.80;99.90;;;;;;5014491;28;20049;-69
2021/07/06 03:15:31;;;;;;;6.88;1.50;;;17.90;99.90;;;;;;5014460;28;19913;-68
2021/07/06 03:18:00;;;;;;;3.33;1.55;;;17.90;99.90;;;;;;4996877;28;20022;-68
2021/07/06 03:20:27;;;;;;;4.75;1.48;;;17.80;99.90;;;;;;4996760;28;20045;-69
2021/07/06 03:22:54;;;;;;;1.80;1.02;;;17.80;99.90;;;;;;4996501;28;20026;-68
2021/07/06 03:25:25;;;;;;;5.47;1.38;;;17.80;99.90;;;;;;4996013;28;20049;-68
2021/07/06 03:27:50;;;;;;;2.13;1.10;;;17.80;99.90;;;;;;5013904;28;20482;-68
2021/07/06 03:30:29;;;;;;;5.75;1.30;;;17.80;99.90;;;;;;5013745;28;20128;-68
2021/07/06 03:32:58;;;;;;;3.22;1.30;;;17.90;99.90;;;;;;5013747;28;20041;-68
2021/07/06 03:35:25;;;;;;;4.45;1.40;;;17.90;99.90;;;;;;4996363;28;20040;-69
2021/07/06 03:37:51;;;;;;;5.10;1.38;;;17.90;99.90;;;;;;5013714;28;20041;-68
2021/07/06 03:40:18;;;;;;;4.43;1.30;;;18.00;99.90;;;;;;5013714;28;20041;-69
2021/07/06 03:42:44;;;;;;;2.90;1.20;;;18.00;99.90;;;;;;5013827;28;20037;-68
2021/07/06 03:45:12;;;;;;;3.72;1.73;;;18.00;99.90;;;;;;4992724;28;20030;-68
2021/07/06 03:47:39;;;;;;;3.55;1.27;;;18.00;99.90;;;;;;5013691;28;20036;-68
2021/07/06 03:50:08;;;;;;;2.75;1.35;;;18.00;99.90;;;;;;5013339;28;20030;-68
2021/07/06 03:52:35;;;;;;;3.00;1.30;;;18.00;99.90;;;;;;5030909;28;20042;-66
2021/07/06 03:55:01;;;;;;;7.80;1.70;;;18.10;99.90;;;;;;5021381;28;20036;-66
2021/07/06 03:57:29;;;;;;;3.78;1.35;;;18.10;99.90;;;;;;5015882;28;20057;-66
2021/07/06 04:00:10;;;;;;;4.65;2.20;;;18.10;99.90;;;;;;5030169;28;20033;-66
2021/07/06 04:02:37;;;;;;;6.10;1.95;;;18.20;99.90;;;;;;5033805;28;20057;-73
2021/07/06 04:05:05;;;;;;;4.00;1.70;;;18.20;99.90;;;;;;5032927;28;20486;-75
2021/07/06 04:07:31;;;;;;;2.85;1.45;;;18.20;99.90;;;;;;5033307;28;20501;-78
2021/07/06 04:09:57;;;;;;;3.05;1.10;;;18.10;99.90;;;;;;5028536;28;20049;-75
2021/07/06 04:12:23;;;;;;;5.35;1.23;;;18.10;99.90;;;;;;5018350;28;20071;-81
2021/07/06 04:14:49;;;;;;;4.28;1.60;;;18.10;99.90;;;;;;5013201;28;20037;-79
2021/07/06 04:17:14;;;;;;;3.05;1.45;;;18.20;99.90;;;;;;5012799;28;20033;-78
2021/07/06 04:19:40;;;;;;;2.33;1.35;;;18.20;99.90;;;;;;5012925;28;20033;-76
2021/07/06 04:22:07;;;;;;;2.55;1.30;;;18.20;99.90;;;;;;5022172;28;20045;-79
2021/07/06 04:24:33;;;;;;;5.00;1.63;;;18.30;99.90;;;;;;5023494;28;20033;-77
2021/07/06 04:27:00;;;;;;;2.60;1.40;;;18.30;99.90;;;;;;5021863;28;20033;-77
2021/07/06 04:29:26;;;;;;;2.97;1.40;;;18.40;99.90;;;;;;5027749;28;20053;-82
2021/07/06 04:31:53;;;;;;;5.40;1.98;;;18.40;99.90;;;;;;5033219;28;20029;-78
2021/07/06 04:34:21;;;;;;;8.05;4.75;;;18.40;99.90;;;;;;5032840;28;20079;-76
2021/07/06 04:36:47;;;;;;;18.38;13.93;;;18.40;99.90;;;;;;5032667;28;20524;-80
2021/07/06 04:39:13;;;;;;;4.38;1.85;;;18.50;99.90;;;;;;5032326;28;20030;-78
2021/07/06 04:41:39;;;;;;;23.67;15.57;;;18.50;99.90;;;;;;5032346;28;20026;-78
2021/07/06 04:44:05;;;;;;;9.18;4.15;;;18.70;99.90;;;;;;5031098;28;20120;-79
2021/07/06 04:46:30;;;;;;;6.75;3.20;;;18.80;99.90;;;;;;5032187;28;20072;-80
2021/07/06 04:48:56;;;;;;;5.85;1.98;;;18.80;99.90;;;;;;5032052;28;20073;-76
2021/07/06 04:51:22;;;;;;;4.05;1.73;;;18.80;99.90;;;;;;5032191;28;20037;-75
2021/07/06 04:53:48;;;;;;;4.00;1.63;;;18.80;99.90;;;;;;5019166;28;20619;-79
2021/07/06 04:56:13;;;;;;;4.55;1.65;;;18.80;99.90;;;;;;5012408;28;20038;-78
2021/07/06 04:58:39;;;;;;;3.95;1.90;;;18.80;99.90;;;;;;5012354;28;20026;-77
2021/07/06 05:01:05;;;;;;;2.83;1.20;;;18.80;99.90;;;;;;5012393;28;20033;-63
2021/07/06 05:03:32;;;;;;;3.88;1.50;;;19.00;99.90;;;;;;4995106;28;20041;-64
2021/07/06 05:06:00;;;;;;;2.95;1.63;;;19.00;99.90;;;;;;4957176;28;20050;-66
2021/07/06 05:08:26;;;;;;;3.38;1.40;;;19.30;99.90;;;;;;5008010;28;20030;-64
2021/07/06 05:10:52;;;;;;;3.47;1.42;;;19.30;99.90;;;;;;4994857;28;20026;-64
2021/07/06 05:13:18;;;;;;;3.67;1.40;;;19.50;99.90;;;;;;5016375;28;20034;-67
2021/07/06 05:15:45;;;;;;;3.63;1.50;;;19.60;99.90;;;;;;4997833;28;20058;-67
2021/07/06 05:18:12;;;;;;;4.93;1.85;;;19.70;99.90;;;;;;5014451;28;20065;-67
2021/07/06 05:20:38;;;;;;;35.13;23.63;;;19.70;99.90;;;;;;5031588;28;20072;-68
2021/07/06 05:23:04;;;;;;;2.78;1.30;;;19.80;99.90;;;;;;5031718;28;20166;-67
2021/07/06 05:25:30;;;;;;;4.25;1.55;;;19.80;99.90;;;;;;5032020;28;20046;-68
2021/07/06 05:27:56;;;;;;;4.65;1.45;;;19.90;99.90;;;;;;5031738;28;20026;-67
2021/07/06 05:30:22;;;;;;;4.03;1.50;;;20.00;99.90;;;;;;5031819;28;20061;-66
2021/07/06 05:32:47;;;;;;;3.88;1.38;;;20.20;99.90;;;;;;5014343;28;20041;-67
2021/07/06 05:35:14;;;;;;;3.38;1.30;;;20.30;99.90;;;;;;5013931;28;20047;-67
2021/07/06 05:37:40;;;;;;;5.28;1.30;;;20.40;99.90;;;;;;4997817;28;20041;-67
2021/07/06 05:40:09;;;;;;;4.65;1.20;;;20.50;99.90;;;;;;5031362;28;20040;-66
2021/07/06 05:42:37;;;;;;;2.53;1.15;;;20.60;99.90;;;;;;5031601;28;20021;-68
2021/07/06 05:45:06;;;;;;;7.43;1.42;;;20.70;99.90;;;;;;5031654;28;20099;-67
2021/07/06 05:47:35;;;;;;;3.38;1.08;;;20.80;99.90;;;;;;5014134;28;20033;-68
2021/07/06 05:50:13;;;;;;;4.18;1.30;;;20.90;99.90;;;;;;5000636;28;20577;-68
2021/07/06 05:52:38;;;;;;;3.75;0.63;;;21.00;99.90;;;;;;5018240;28;20034;-68
2021/07/06 05:55:07;;;;;;;6.97;1.55;;;21.10;99.90;;;;;;5017683;28;20397;-73
2021/07/06 05:57:33;;;;;;;3.03;1.42;;;21.20;99.90;;;;;;5032571;28;20033;-68
2021/07/06 06:00:02;;;;;;;1.58;1.00;;;21.30;99.90;;;;;;5034476;28;20082;-68
2021/07/06 06:02:28;;;;;;;1.80;0.85;;;21.40;99.90;;;;;;5032583;28;20053;-68
2021/07/06 06:04:54;;;;;;;3.35;1.77;;;21.50;99.90;;;;;;5015703;28;20536;-69
2021/07/06 06:07:22;;;;;;;2.17;0.95;;;21.40;99.90;;;;;;5015116;28;20507;-69
2021/07/06 06:09:47;;;;;;;1.67;1.00;;;21.40;99.90;;;;;;4998289;28;20113;-68
2021/07/06 06:12:13;;;;;;;4.03;0.98;;;21.50;99.90;;;;;;5015366;28;20498;-68
2021/07/06 06:14:39;;;;;;;2.50;1.30;;;21.50;99.90;;;;;;5015609;28;20096;-69
2021/07/06 06:17:05;;;;;;;1.75;0.80;;;21.60;99.90;;;;;;5015348;28;20120;-68
2021/07/06 06:19:31;;;;;;;2.15;0.85;;;21.50;99.90;;;;;;5015240;28;20030;-68
2021/07/06 06:21:57;;;;;;;1.60;0.90;;;21.50;99.90;;;;;;5015156;28;20109;-67
2021/07/06 06:24:24;;;;;;;4.53;1.17;;;21.50;99.90;;;;;;5015322;28;20034;-68
2021/07/06 06:26:50;;;;;;;3.75;0.90;;;21.40;99.90;;;;;;5015222;28;20034;-68
2021/07/06 06:29:19;;;;;;;2.92;1.30;;;21.40;99.90;;;;;;5014802;28;20037;-67
2021/07/06 06:31:45;;;;;;;2.90;1.15;;;21.50;99.90;;;;;;5014926;28;20116;-61
2021/07/06 06:34:12;;;;;;;2.17;1.00;;;21.50;99.90;;;;;;4997582;28;20057;-62
2021/07/06 06:36:37;;;;;;;2.78;1.00;;;21.60;99.90;;;;;;4997738;28;20490;-62
2021/07/06 06:39:05;;;;;;;3.60;1.20;;;21.80;99.90;;;;;;5017510;28;20033;-62
2021/07/06 06:41:31;;;;;;;5.88;1.40;;;21.80;99.90;;;;;;5014875;28;20036;-62
2021/07/06 06:43:57;;;;;;;6.53;1.25;;;21.80;99.90;;;;;;5013253;28;20033;-62
2021/07/06 06:46:22;;;;;;;4.43;0.95;;;21.80;99.90;;;;;;5014887;28;20371;-61
2021/07/06 06:48:49;;;;;;;1.95;1.08;;;22.00;99.90;;;;;;5020135;28;20463;-61
2021/07/06 06:51:15;;;;;;;2.72;1.10;;;22.10;99.90;;;;;;5014714;28;20528;-61
2021/07/06 06:53:41;;;;;;;4.85;1.08;;;22.30;99.90;;;;;;5014685;28;20034;-63
2021/07/06 06:56:08;;;;;;;3.65;0.95;;;22.20;99.90;;;;;;5014625;28;20030;-62
2021/07/06 06:58:34;;;;;;;8.45;1.02;;;22.20;99.90;;;;;;5014743;28;20026;-62
2021/07/06 07:01:00;;;;;;;4.22;1.20;;;22.20;99.90;;;;;;4995553;28;20030;-63
2021/07/06 07:03:25;;;;;;;5.03;1.10;;;22.10;99.90;;;;;;5014676;28;20030;-63
2021/07/06 07:05:52;;;;;;;8.90;1.23;;;22.10;99.90;;;;;;5014317;28;20351;-62
2021/07/06 07:08:20;;;;;;;2.92;1.10;;;21.90;99.90;;;;;;5014157;28;20305;-62
2021/07/06 07:10:48;;;;;;;5.20;1.17;;;21.90;99.90;;;;;;5014482;28;20026;-60
2021/07/06 07:13:15;;;;;;;2.55;1.23;;;21.80;99.90;;;;;;4997065;28;20056;-62
2021/07/06 07:15:41;;;;;;;2.38;1.05;;;21.90;99.90;;;;;;5014173;28;20072;-62
2021/07/06 07:18:07;;;;;;;4.45;1.15;;;21.90;99.90;;;;;;5013921;28;20026;-62
2021/07/06 07:20:33;;;;;;;4.93;1.00;;;21.90;99.90;;;;;;5014251;28;20026;-62
2021/07/06 07:22:59;;;;;;;2.42;1.17;;;21.90;99.90;;;;;;5014078;28;20022;-62
2021/07/06 07:25:24;;;;;;;3.70;1.33;;;21.90;99.90;;;;;;4996793;28;20104;-62
2021/07/06 07:27:50;;;;;;;2.67;1.00;;;21.90;99.90;;;;;;5014082;28;20064;-61
2021/07/06 07:30:18;;;;;;;2.33;1.17;;;21.90;99.90;;;;;;5013951;28;20026;-61
2021/07/06 07:32:45;;;;;;;3.88;1.08;;;22.10;99.90;;;;;;5013977;28;20037;-62
2021/07/06 07:35:12;;;;;;;4.57;1.50;;;22.10;99.90;;;;;;4996263;28;20113;-62
2021/07/06 07:37:39;;;;;;;3.83;1.25;;;22.20;99.90;;;;;;5013875;28;20033;-62
2021/07/06 07:40:07;;;;;;;5.65;1.58;;;22.10;99.90;;;;;;4995990;28;20528;-62
2021/07/06 07:42:33;;;;;;;7.10;1.92;;;22.10;99.90;;;;;;4995955;28;20049;-62
2021/07/06 07:44:59;;;;;;;2.65;0.90;;;22.00;99.90;;;;;;5013783;28;20026;-64
2021/07/06 07:47:25;;;;;;;3.35;1.20;;;22.00;99.90;;;;;;5013611;28;20585;-61
2021/07/06 07:49:51;;;;;;;8.30;1.80;;;22.10;99.90;;;;;;5013460;28;20109;-62
2021/07/06 07:52:17;;;;;;;3.83;1.48;;;22.10;99.90;;;;;;5013464;28;20119;-61
2021/07/06 07:54:42;;;;;;;3.78;1.30;;;22.10;99.90;;;;;;5013594;28;20060;-63
2021/07/06 07:57:10;;;;;;;2.13;1.10;;;22.10;99.90;;;;;;5013316;28;20497;-62
2021/07/06 07:59:38;;;;;;;2.95;0.80;;;22.20;99.90;;;;;;5013521;28;20021;-62
2021/07/06 08:02:04;;;;;;;2.40;1.10;;;22.10;99.90;;;;;;5013241;28;20479;-62
2021/07/06 08:04:30;;;;;;;3.88;1.13;;;22.00;99.90;;;;;;5013544;28;20037;-62
2021/07/06 08:06:56;;;;;;;1.80;1.00;;;22.00;99.90;;;;;;5013162;28;20100;-62
2021/07/06 08:09:21;;;;;;;3.85;1.33;;;21.90;99.90;;;;;;5009792;28;20564;-62
2021/07/06 08:11:47;;;;;;;3.05;1.20;;;21.90;99.90;;;;;;5032548;28;20382;-61
2021/07/06 08:14:13;;;;;;;2.38;1.00;;;21.90;99.90;;;;;;5014956;28;20033;-62
2021/07/06 08:16:39;;;;;;;48.08;6.07;;;21.80;99.90;;;;;;5032790;28;20048;-62
2021/07/06 08:19:05;;;;;;;2.78;1.10;;;21.80;99.90;;;;;;5032878;28;20040;-62
2021/07/06 08:21:31;;;;;;;16.08;2.67;;;21.70;99.90;;;;;;5033016;28;20116;-62
2021/07/06 08:24:01;;;;;;;25.48;4.07;;;21.70;99.90;;;;;;5032859;28;20116;-62
2021/07/06 08:26:27;;;;;;;4.43;1.45;;;21.50;99.90;;;;;;5032545;28;20045;-62
2021/07/06 08:28:53;;;;;;;6.20;1.60;;;21.50;99.90;;;;;;5032898;28;20029;-61
2021/07/06 08:31:19;;;;;;;5.10;1.70;;;21.30;99.90;;;;;;5032529;28;20360;-62
2021/07/06 08:33:45;;;;;;;5.93;1.83;;;21.00;99.90;;;;;;5032819;28;20025;-62
2021/07/06 08:36:11;;;;;;;2.97;1.83;;;20.90;99.90;;;;;;5032676;28;20033;-62
2021/07/06 08:38:39;;;;;;;8.30;1.95;;;20.70;99.90;;;;;;5032544;28;20033;-60
2021/07/06 08:41:06;;;;;;;5.45;2.03;;;20.60;99.90;;;;;;5032443;28;20059;-60
2021/07/06 08:43:32;;;;;;;6.40;2.50;;;20.30;99.90;;;;;;5032465;28;20033;-62
2021/07/06 08:46:03;;;;;;;10.82;2.50;;;20.20;99.90;;;;;;5032539;28;20025;-62
2021/07/06 08:48:33;;;;;;;5.43;2.10;;;20.00;99.90;;;;;;5032562;28;20025;-62
2021/07/06 08:51:01;;;;;;;7.03;2.58;;;19.90;99.90;;;;;;5015137;28;20025;-62
2021/07/06 08:53:28;;;;;;;7.63;2.67;;;19.80;99.90;;;;;;5032108;28;20490;-62
2021/07/06 08:55:56;;;;;;;5.47;2.55;;;19.70;99.90;;;;;;5032227;28;20394;-63
2021/07/06 08:58:22;;;;;;;13.45;3.88;;;19.70;99.90;;;;;;5032023;28;20025;-63
2021/07/06 09:00:48;;;;;;;19.77;5.25;;;19.70;99.90;;;;;;5032253;28;20547;-62
2021/07/06 09:03:14;;;;;;;6.93;2.30;;;19.60;99.90;;;;;;5032246;28;20060;-62
2021/07/06 09:05:40;;;;;;;20.50;4.38;;;19.40;99.90;;;;;;5032010;28;20466;-62
2021/07/06 09:08:08;;;;;;;4.43;2.03;;;19.30;99.90;;;;;;5032122;28;20030;-67
2021/07/06 09:10:41;;;;;;;8.32;3.40;;;19.20;99.90;;;;;;4998145;28;20068;-67
2021/07/06 09:13:31;;;;;;;3.08;1.40;;;19.20;99.90;;;;;;5031090;28;20030;-67
2021/07/06 09:15:58;;;;;;;10.13;2.13;;;19.10;99.90;;;;;;5030552;28;20103;-68
2021/07/06 09:18:30;;;;;;;11.75;2.67;;;19.10;99.90;;;;;;4997615;28;20075;-68
2021/07/06 09:21:12;;;;;;;8.70;2.60;;;19.00;99.90;;;;;;5031718;28;20053;-66
2021/07/06 09:23:49;;;;;;;3.75;2.08;;;18.90;99.90;;;;;;5031925;28;20025;-65
2021/07/06 09:26:18;;;;;;;5.35;2.00;;;18.90;99.90;;;;;;5035631;28;20116;-67
2021/07/06 09:28:54;;;;;;;7.78;2.35;;;18.90;99.90;;;;;;5035778;28;20128;-67
2021/07/06 09:31:27;;;;;;;5.68;1.98;;;18.90;99.90;;;;;;5018623;28;20463;-67
2021/07/06 09:34:22;;;;;;;5.03;1.90;;;18.90;99.90;;;;;;5035771;28;20033;-67
2021/07/06 09:36:51;;;;;;;4.03;2.03;;;18.90;99.90;;;;;;5017994;28;20022;-67
2021/07/06 09:39:21;;;;;;;5.18;2.58;;;19.00;99.90;;;;;;5035382;28;20470;-67
2021/07/06 09:41:56;;;;;;;9.20;5.68;;;19.00;99.90;;;;;;5017603;28;20041;-67
2021/07/06 09:44:24;;;;;;;6.65;3.13;;;19.10;99.90;;;;;;5017605;28;20032;-67
2021/07/06 09:47:11;;;;;;;9.57;3.08;;;19.20;99.90;;;;;;5035352;28;20033;-67
2021/07/06 09:49:43;;;;;;;7.25;2.83;;;19.20;99.90;;;;;;5018002;28;20034;-67
2021/07/06 09:52:11;;;;;;;6.22;2.63;;;19.30;99.90;;;;;;5033776;28;20103;-66
2021/07/06 09:54:49;;;;;;;5.82;3.15;;;19.30;99.90;;;;;;5034923;28;20034;-66
2021/07/06 09:57:30;;;;;;;6.63;3.47;;;19.30;99.90;;;;;;5033804;28;20030;-67
2021/07/06 10:00:15;;;;;;;6.38;2.78;;;19.40;99.90;;;;;;5034887;28;20095;-67
2021/07/06 10:02:43;;;;;;;3.92;2.20;;;19.40;99.90;;;;;;5001289;28;20532;-68
2021/07/06 10:05:20;;;;;;;5.53;2.28;;;19.50;99.90;;;;;;5000876;28;20040;-67
2021/07/06 10:07:46;;;;;;;6.30;1.60;;;19.50;99.90;;;;;;5034960;28;20061;-68
2021/07/06 10:10:14;;;;;;;3.88;1.90;;;19.70;99.90;;;;;;5034800;28;20464;-67
2021/07/06 10:12:43;;;;;;;5.28;1.58;;;19.70;99.90;;;;;;5017543;28;20034;-66
2021/07/06 10:15:11;;;;;;;3.10;1.30;;;19.80;99.90;;;;;;5034909;28;20398;-67
2021/07/06 10:17:38;;;;;;;2.58;1.08;;;19.80;99.90;;;;;;5034977;28;20425;-66
2021/07/06 10:20:11;;;;;;;2.70;1.10;;;19.80;99.90;;;;;;5034595;28;20033;-67
2021/07/06 10:22:38;;;;;;;2.67;1.00;;;19.90;99.90;;;;;;5034807;28;20060;-66
2021/07/06 10:25:08;;;;;;;1.92;0.90;;;19.70;99.90;;;;;;5017204;28;20034;-66
2021/07/06 10:27:38;;;;;;;4.32;1.95;;;19.80;99.90;;;;;;5017582;28;20107;-66
2021/07/06 10:30:19;;;;;;;3.05;1.00;;;19.70;99.90;;;;;;5017582;28;20042;-70
2021/07/06 10:32:54;;;;;;;2.13;1.15;;;19.70;99.90;;;;;;5035096;28;20030;-67
2021/07/06 10:35:42;;;;;;;3.90;1.08;;;19.60;99.90;;;;;;5034166;28;20053;-66
2021/07/06 10:38:26;;;;;;;2.83;1.15;;;19.80;99.90;;;;;;5034409;28;20406;-65
2021/07/06 10:41:08;;;;;;;3.95;1.17;;;19.90;99.90;;;;;;5034757;28;20116;-64
2021/07/06 10:43:42;;;;;;;2.42;1.10;;;19.90;99.90;;;;;;5034331;28;20174;-65
2021/07/06 10:46:19;;;;;;;2.33;1.10;;;19.90;99.90;;;;;;5034656;28;20467;-66
2021/07/06 10:48:50;;;;;;;4.32;1.45;;;19.80;99.90;;;;;;5034504;28;20111;-66
2021/07/06 10:51:34;;;;;;;1.73;1.13;;;19.70;99.90;;;;;;5034497;28;20109;-66
2021/07/06 10:54:16;;;;;;;2.97;1.23;;;19.80;99.90;;;;;;5034237;28;20132;-65
2021/07/06 10:56:55;;;;;;;1.88;1.10;;;19.70;99.90;;;;;;5034586;28;20083;-65
2021/07/06 10:59:22;;;;;;;4.13;1.10;;;19.60;99.90;;;;;;5034145;28;20026;-65
2021/07/06 11:01:48;;;;;;;3.00;0.90;;;19.60;99.90;;;;;;5034036;28;20040;-66
2021/07/06 11:04:36;;;;;;;1.83;0.82;;;19.70;99.90;;;;;;5033960;28;20033;-66
2021/07/06 11:07:10;;;;;;;3.05;1.15;;;19.80;99.90;;;;;;5033856;28;20120;-66
2021/07/06 11:09:36;;;;;;;2.45;1.20;;;19.80;99.90;;;;;;5016140;28;20087;-66
2021/07/06 11:12:23;;;;;;;3.10;1.40;;;19.80;99.90;;;;;;5016080;28;20417;-66
2021/07/06 11:15:03;;;;;;;2.05;1.10;;;19.80;99.90;;;;;;5033699;28;20394;-66
2021/07/06 11:17:34;;;;;;;3.97;1.53;;;19.80;99.90;;;;;;5033803;28;20034;-66
2021/07/06 11:20:17;;;;;;;3.10;1.25;;;19.70;99.90;;;;;;5033633;28;20331;-65
2021/07/06 11:22:49;;;;;;;8.07;2.97;;;19.60;99.90;;;;;;5017698;28;20560;-65
2021/07/06 11:25:19;;;;;;;5.55;1.90;;;19.60;99.90;;;;;;5016546;28;20375;-65
2021/07/06 11:28:26;;;;;;;2.65;1.02;;;19.60;99.90;;;;;;5016157;28;20108;-65
2021/07/06 11:31:03;;;;;;;2.60;1.60;;;19.60;99.90;;;;;;5033883;28;20037;-65
2021/07/06 11:33:32;;;;;;;3.47;1.98;;;19.70;99.90;;;;;;5033884;28;20044;-64
2021/07/06 11:36:02;;;;;;;2.60;1.20;;;19.70;99.90;;;;;;5033480;28;20049;-65
2021/07/06 11:38:44;;;;;;;1.83;1.33;;;19.70;99.90;;;;;;5033541;28;20037;-64
2021/07/06 11:41:13;;;;;;;2.45;1.30;;;19.70;99.90;;;;;;5033605;28;20497;-65
2021/07/06 11:43:40;;;;;;;2.83;1.30;;;19.70;99.90;;;;;;5033265;28;20034;-64
2021/07/06 11:46:10;;;;;;;2.47;1.40;;;19.70;99.90;;;;;;5033156;28;20087;-66
2021/07/06 11:48:39;;;;;;;3.17;1.40;;;19.70;99.90;;;;;;5032768;28;20120;-66
2021/07/06 11:51:11;;;;;;;2.70;1.45;;;19.70;99.90;;;;;;5033331;28;20124;-66
2021/07/06 11:53:41;;;;;;;2.72;1.30;;;19.60;99.90;;;;;;5033304;28;20478;-66
2021/07/06 11:56:10;;;;;;;4.68;2.75;;;19.60;99.90;;;;;;5015596;28;20061;-67
2021/07/06 11:58:36;;;;;;;5.30;1.58;;;19.60;99.90;;;;;;5033233;28;20032;-67
2021/07/06 12:01:09;;;;;;;3.58;1.50;;;19.60;99.90;;;;;;5032828;28;20039;-67
2021/07/06 12:03:37;;;;;;;3.17;1.30;;;19.50;99.90;;;;;;5033105;28;20574;-66
2021/07/06 12:06:20;;;;;;;2.03;1.02;;;19.50;99.90;;;;;;5015456;28;20049;-66
2021/07/06 12:08:50;;;;;;;2.03;1.30;;;19.50;99.90;;;;;;5032873;28;20040;-66
2021/07/06 12:11:24;;;;;;;7.80;1.48;;;19.40;99.90;;;;;;5032774;28;20119;-66
2021/07/06 12:13:53;;;;;;;1.63;1.10;;;19.40;99.90;;;;;;5032252;28;20547;-66
2021/07/06 12:16:39;;;;;;;3.10;1.42;;;19.30;99.90;;;;;;5032897;28;20359;-66
2021/07/06 12:19:11;;;;;;;2.35;1.48;;;19.40;99.90;;;;;;5032739;28;20033;-66
2021/07/06 12:21:41;;;;;;;3.63;1.70;;;19.40;99.90;;;;;;5031375;28;20391;-67
2021/07/06 12:24:20;;;;;;;5.00;1.80;;;19.30;99.90;;;;;;5032766;28;20386;-67
2021/07/06 12:26:53;;;;;;;3.70;1.88;;;19.20;99.90;;;;;;5032454;28;20501;-66
2021/07/06 12:29:33;;;;;;;6.55;3.40;;;19.10;99.90;;;;;;5032819;28;20034;-66
2021/07/06 12:32:02;;;;;;;3.33;1.90;;;19.10;99.90;;;;;;5032350;28;20069;-66
2021/07/06 12:34:37;;;;;;;4.88;2.10;;;19.00;99.90;;;;;;5032598;28;20056;-66
2021/07/06 12:37:03;;;;;;;3.78;2.05;;;19.00;99.90;;;;;;5032387;28;20033;-66
2021/07/06 12:39:34;;;;;;;4.40;2.17;;;19.00;99.90;;;;;;5032335;28;20360;-66
2021/07/06 12:42:04;;;;;;;6.05;2.58;;;19.10;99.90;;;;;;5031205;28;20037;-66
2021/07/06 12:44:44;;;;;;;4.07;2.00;;;19.10;99.90;;;;;;5032185;28;20536;-67
2021/07/06 12:47:17;;;;;;;8.45;2.50;;;19.10;99.90;;;;;;5032495;28;20087;-67
2021/07/06 12:49:47;;;;;;;4.60;1.80;;;19.20;99.90;;;;;;5032164;28;20113;-67
2021/07/06 12:52:14;;;;;;;3.20;1.90;;;19.30;99.90;;;;;;5032150;28;20037;-67
2021/07/06 12:54:41;;;;;;;5.88;2.05;;;19.30;99.90;;;;;;5032017;28;20548;-67